sensor_id;sensor_type;location;lat;lon;timestamp;pressure;altitude;pressure_sealevel;temperature;humidity
50356;BME280;36264;51.296;-0.602;2023-08-06T00:01:42;101100.13;;;15.74;100.00
50356;BME280;36264;51.296;-0.602;2023-08-06T00:04:08;101098.78;;;15.66;100.00
50356;BME280;36264;51.296;-0.602;2023-08-06T00:06:33;101098.56;;;15.70;100.00
50356;BME280;36264;51.296;-0.602;2023-08-06T00:08:58;101102.53;;;15.79;100.00
50356;BME280;36264;51.296;-0.602;2023-08-06T00:11:24;101109.81;;;15.72;100.00
50356;BME280;36264;51.296;-0.602;2023-08-06T00:13:49;101106.38;;;15.72;100.00
50356;BME280;36264;51.296;-0.602;2023-08-06T00:16:14;101114.72;;;15.80;100.00
50356;BME280;36264;51.296;-0.602;2023-08-06T00:18:40;101125.28;;;15.79;100.00
50356;BME280;36264;51.296;-0.602;2023-08-06T00:21:05;101128.22;;;15.71;100.00
50356;BME280;36264;51.296;-0.602;2023-08-06T00:23:32;101135.09;;;15.73;100.00
50356;BME280;36264;51.296;-0.602;2023-08-06T00:25:57;101140.22;;;15.77;100.00
50356;BME280;36264;51.296;-0.602;2023-08-06T00:28:22;101142.16;;;15.71;100.00
50356;BME280;36264;51.296;-0.602;2023-08-06T00:30:55;101146.56;;;15.90;100.00
50356;BME280;36264;51.296;-0.602;2023-08-06T00:33:21;101153.31;;;15.77;100.00
50356;BME280;36264;51.296;-0.602;2023-08-06T00:35:47;101161.97;;;15.58;100.00
50356;BME280;36264;51.296;-0.602;2023-08-06T00:38:12;101161.00;;;15.61;100.00
50356;BME280;36264;51.296;-0.602;2023-08-06T00:40:38;101162.34;;;15.69;100.00
50356;BME280;36264;51.296;-0.602;2023-08-06T00:43:04;101166.13;;;15.62;100.00
50356;BME280;36264;51.296;-0.602;2023-08-06T00:45:29;101171.16;;;15.67;100.00
50356;BME280;36264;51.296;-0.602;2023-08-06T00:47:55;101162.03;;;15.56;100.00
50356;BME280;36264;51.296;-0.602;2023-08-06T00:50:21;101170.31;;;15.47;100.00
50356;BME280;36264;51.296;-0.602;2023-08-06T00:52:48;101173.91;;;15.45;100.00
50356;BME280;36264;51.296;-0.602;2023-08-06T00:55:15;101179.59;;;15.54;100.00
50356;BME280;36264;51.296;-0.602;2023-08-06T00:57:41;101179.94;;;15.47;100.00
50356;BME280;36264;51.296;-0.602;2023-08-06T01:00:07;101179.13;;;15.45;100.00
50356;BME280;36264;51.296;-0.602;2023-08-06T01:02:32;101189.50;;;15.27;100.00
50356;BME280;36264;51.296;-0.602;2023-08-06T01:04:58;101192.19;;;15.26;100.00
50356;BME280;36264;51.296;-0.602;2023-08-06T01:10:19;101205.72;;;15.56;100.00
50356;BME280;36264;51.296;-0.602;2023-08-06T01:15:35;101205.41;;;15.62;100.00
50356;BME280;36264;51.296;-0.602;2023-08-06T01:18:03;101210.09;;;15.35;100.00
50356;BME280;36264;51.296;-0.602;2023-08-06T01:20:31;101210.84;;;15.38;100.00
50356;BME280;36264;51.296;-0.602;2023-08-06T01:22:57;101206.72;;;15.33;100.00
50356;BME280;36264;51.296;-0.602;2023-08-06T01:25:26;101217.38;;;15.49;100.00
50356;BME280;36264;51.296;-0.602;2023-08-06T01:27:58;101209.06;;;15.39;100.00
50356;BME280;36264;51.296;-0.602;2023-08-06T01:30:30;101215.00;;;15.43;100.00
50356;BME280;36264;51.296;-0.602;2023-08-06T01:33:04;101216.78;;;15.42;100.00
50356;BME280;36264;51.296;-0.602;2023-08-06T01:35:29;101222.34;;;15.34;100.00
50356;BME280;36264;51.296;-0.602;2023-08-06T01:37:55;101218.41;;;15.24;100.00
50356;BME280;36264;51.296;-0.602;2023-08-06T01:40:21;101223.66;;;15.24;100.00
50356;BME280;36264;51.296;-0.602;2023-08-06T01:42:47;101223.13;;;15.16;100.00
50356;BME280;36264;51.296;-0.602;2023-08-06T01:45:12;101229.25;;;15.16;100.00
50356;BME280;36264;51.296;-0.602;2023-08-06T01:47:37;101227.91;;;15.06;100.00
50356;BME280;36264;51.296;-0.602;2023-08-06T01:50:03;101233.00;;;15.09;100.00
50356;BME280;36264;51.296;-0.602;2023-08-06T01:52:29;101235.88;;;15.03;100.00
50356;BME280;36264;51.296;-0.602;2023-08-06T01:54:55;101239.97;;;15.10;100.00
50356;BME280;36264;51.296;-0.602;2023-08-06T01:57:20;101235.09;;;15.01;100.00
50356;BME280;36264;51.296;-0.602;2023-08-06T01:59:46;101237.38;;;14.88;100.00
50356;BME280;36264;51.296;-0.602;2023-08-06T02:02:12;101236.75;;;15.03;100.00
50356;BME280;36264;51.296;-0.602;2023-08-06T02:04:37;101246.06;;;14.89;100.00
50356;BME280;36264;51.296;-0.602;2023-08-06T02:07:02;101244.88;;;14.75;100.00
50356;BME280;36264;51.296;-0.602;2023-08-06T02:09:28;101242.22;;;14.77;100.00
50356;BME280;36264;51.296;-0.602;2023-08-06T02:11:53;101246.63;;;14.75;100.00
50356;BME280;36264;51.296;-0.602;2023-08-06T02:14:18;101249.06;;;14.79;100.00
50356;BME280;36264;51.296;-0.602;2023-08-06T02:16:44;101249.94;;;14.80;100.00
50356;BME280;36264;51.296;-0.602;2023-08-06T02:19:09;101249.25;;;14.75;100.00
50356;BME280;36264;51.296;-0.602;2023-08-06T02:21:35;101256.53;;;14.66;100.00
50356;BME280;36264;51.296;-0.602;2023-08-06T02:24:00;101259.56;;;14.78;100.00
50356;BME280;36264;51.296;-0.602;2023-08-06T02:26:26;101263.91;;;14.79;100.00
50356;BME280;36264;51.296;-0.602;2023-08-06T02:28:51;101261.28;;;14.79;100.00
50356;BME280;36264;51.296;-0.602;2023-08-06T02:31:16;101262.06;;;14.81;100.00
50356;BME280;36264;51.296;-0.602;2023-08-06T02:33:42;101264.56;;;14.84;100.00
50356;BME280;36264;51.296;-0.602;2023-08-06T02:36:07;101265.50;;;14.83;100.00
50356;BME280;36264;51.296;-0.602;2023-08-06T02:38:32;101266.66;;;14.76;100.00
50356;BME280;36264;51.296;-0.602;2023-08-06T02:40:58;101262.13;;;14.79;100.00
50356;BME280;36264;51.296;-0.602;2023-08-06T02:43:23;101265.69;;;14.78;100.00
50356;BME280;36264;51.296;-0.602;2023-08-06T02:45:49;101265.69;;;14.78;100.00
50356;BME280;36264;51.296;-0.602;2023-08-06T02:48:14;101271.81;;;14.77;100.00
50356;BME280;36264;51.296;-0.602;2023-08-06T02:50:41;101266.34;;;14.83;100.00
50356;BME280;36264;51.296;-0.602;2023-08-06T02:53:09;101271.19;;;14.93;100.00
50356;BME280;36264;51.296;-0.602;2023-08-06T02:55:35;101266.88;;;14.70;100.00
50356;BME280;36264;51.296;-0.602;2023-08-06T02:58:01;101271.50;;;14.63;100.00
50356;BME280;36264;51.296;-0.602;2023-08-06T03:00:27;101274.72;;;14.70;100.00
50356;BME280;36264;51.296;-0.602;2023-08-06T03:02:53;101268.84;;;14.64;100.00
50356;BME280;36264;51.296;-0.602;2023-08-06T03:05:18;101269.75;;;14.63;100.00
50356;BME280;36264;51.296;-0.602;2023-08-06T03:07:43;101265.66;;;14.56;100.00
50356;BME280;36264;51.296;-0.602;2023-08-06T03:10:09;101266.56;;;14.55;100.00
50356;BME280;36264;51.296;-0.602;2023-08-06T03:12:34;101280.97;;;14.43;100.00
50356;BME280;36264;51.296;-0.602;2023-08-06T03:15:00;101274.75;;;14.46;100.00
50356;BME280;36264;51.296;-0.602;2023-08-06T03:17:25;101277.25;;;14.49;100.00
50356;BME280;36264;51.296;-0.602;2023-08-06T03:19:50;101279.50;;;14.58;100.00
50356;BME280;36264;51.296;-0.602;2023-08-06T03:22:16;101277.59;;;14.63;100.00
50356;BME280;36264;51.296;-0.602;2023-08-06T03:24:41;101279.50;;;14.58;100.00
50356;BME280;36264;51.296;-0.602;2023-08-06T03:27:06;101279.63;;;14.55;100.00
50356;BME280;36264;51.296;-0.602;2023-08-06T03:29:32;101277.00;;;14.55;100.00
50356;BME280;36264;51.296;-0.602;2023-08-06T03:31:57;101272.69;;;14.54;100.00
50356;BME280;36264;51.296;-0.602;2023-08-06T03:34:22;101279.84;;;14.49;100.00
50356;BME280;36264;51.296;-0.602;2023-08-06T03:36:48;101286.91;;;14.47;100.00
50356;BME280;36264;51.296;-0.602;2023-08-06T03:39:13;101288.63;;;14.48;100.00
50356;BME280;36264;51.296;-0.602;2023-08-06T03:41:39;101294.47;;;14.55;100.00
50356;BME280;36264;51.296;-0.602;2023-08-06T03:44:04;101297.59;;;14.41;100.00
50356;BME280;36264;51.296;-0.602;2023-08-06T03:46:30;101289.53;;;14.47;100.00
50356;BME280;36264;51.296;-0.602;2023-08-06T03:48:59;101286.19;;;14.43;100.00
50356;BME280;36264;51.296;-0.602;2023-08-06T03:51:24;101291.75;;;14.34;100.00
50356;BME280;36264;51.296;-0.602;2023-08-06T03:53:49;101300.78;;;14.25;100.00
50356;BME280;36264;51.296;-0.602;2023-08-06T03:56:15;101297.22;;;14.28;100.00
50356;BME280;36264;51.296;-0.602;2023-08-06T03:58:40;101300.63;;;14.30;100.00
50356;BME280;36264;51.296;-0.602;2023-08-06T04:01:05;101304.78;;;14.36;100.00
50356;BME280;36264;51.296;-0.602;2023-08-06T04:03:31;101301.72;;;14.24;100.00
50356;BME280;36264;51.296;-0.602;2023-08-06T04:05:56;101309.59;;;14.23;100.00
50356;BME280;36264;51.296;-0.602;2023-08-06T04:08:22;101310.44;;;14.23;100.00
50356;BME280;36264;51.296;-0.602;2023-08-06T04:10:53;101312.81;;;14.53;100.00
50356;BME280;36264;51.296;-0.602;2023-08-06T04:13:19;101306.94;;;14.24;100.00
50356;BME280;36264;51.296;-0.602;2023-08-06T04:15:45;101314.84;;;14.23;100.00
50356;BME280;36264;51.296;-0.602;2023-08-06T04:18:11;101315.84;;;14.19;100.00
50356;BME280;36264;51.296;-0.602;2023-08-06T04:20:46;101315.78;;;14.44;100.00
50356;BME280;36264;51.296;-0.602;2023-08-06T04:23:12;101315.63;;;14.25;100.00
50356;BME280;36264;51.296;-0.602;2023-08-06T04:25:37;101323.78;;;14.16;100.00
50356;BME280;36264;51.296;-0.602;2023-08-06T04:28:03;101320.22;;;14.18;100.00
50356;BME280;36264;51.296;-0.602;2023-08-06T04:30:28;101321.63;;;14.27;100.00
50356;BME280;36264;51.296;-0.602;2023-08-06T04:32:54;101320.69;;;14.29;100.00
50356;BME280;36264;51.296;-0.602;2023-08-06T04:35:19;101326.25;;;14.20;100.00
50356;BME280;36264;51.296;-0.602;2023-08-06T04:37:45;101330.34;;;14.27;100.00
50356;BME280;36264;51.296;-0.602;2023-08-06T04:40:10;101335.19;;;14.13;100.00
50356;BME280;36264;51.296;-0.602;2023-08-06T04:42:36;101329.28;;;14.08;100.00
50356;BME280;36264;51.296;-0.602;2023-08-06T04:45:02;101335.38;;;14.32;100.00
50356;BME280;36264;51.296;-0.602;2023-08-06T04:47:27;101342.66;;;14.24;100.00
50356;BME280;36264;51.296;-0.602;2023-08-06T04:49:53;101342.41;;;14.30;100.00
50356;BME280;36264;51.296;-0.602;2023-08-06T04:52:19;101349.03;;;14.17;100.00
50356;BME280;36264;51.296;-0.602;2023-08-06T04:54:44;101344.06;;;14.09;100.00
50356;BME280;36264;51.296;-0.602;2023-08-06T04:57:10;101346.94;;;14.01;100.00
50356;BME280;36264;51.296;-0.602;2023-08-06T04:59:35;101351.69;;;14.15;100.00
50356;BME280;36264;51.296;-0.602;2023-08-06T05:02:01;101357.06;;;14.10;100.00
50356;BME280;36264;51.296;-0.602;2023-08-06T05:04:27;101355.75;;;14.22;100.00
50356;BME280;36264;51.296;-0.602;2023-08-06T05:06:52;101360.38;;;14.16;100.00
50356;BME280;36264;51.296;-0.602;2023-08-06T05:09:18;101361.47;;;14.10;100.00
50356;BME280;36264;51.296;-0.602;2023-08-06T05:11:43;101364.81;;;14.13;100.00
50356;BME280;36264;51.296;-0.602;2023-08-06T05:14:08;101357.06;;;14.10;100.00
50356;BME280;36264;51.296;-0.602;2023-08-06T05:16:33;101360.41;;;14.14;100.00
50356;BME280;36264;51.296;-0.602;2023-08-06T05:18:59;101369.41;;;14.07;100.00
50356;BME280;36264;51.296;-0.602;2023-08-06T05:21:24;101363.94;;;14.13;100.00
50356;BME280;36264;51.296;-0.602;2023-08-06T05:23:50;101370.66;;;14.20;100.00
50356;BME280;36264;51.296;-0.602;2023-08-06T05:26:15;101375.88;;;14.20;100.00
50356;BME280;36264;51.296;-0.602;2023-08-06T05:28:44;101375.81;;;14.22;100.00
50356;BME280;36264;51.296;-0.602;2023-08-06T05:31:09;101378.81;;;14.11;100.00
50356;BME280;36264;51.296;-0.602;2023-08-06T05:33:34;101370.72;;;14.19;100.00
50356;BME280;36264;51.296;-0.602;2023-08-06T05:36:00;101373.53;;;14.12;100.00
50356;BME280;36264;51.296;-0.602;2023-08-06T05:38:26;101370.81;;;14.16;100.00
50356;BME280;36264;51.296;-0.602;2023-08-06T05:40:51;101379.66;;;14.11;100.00
50356;BME280;36264;51.296;-0.602;2023-08-06T05:43:17;101383.78;;;14.19;100.00
50356;BME280;36264;51.296;-0.602;2023-08-06T05:45:45;101388.06;;;14.45;100.00
50356;BME280;36264;51.296;-0.602;2023-08-06T05:48:14;101384.50;;;14.22;100.00
50356;BME280;36264;51.296;-0.602;2023-08-06T05:50:39;101388.72;;;14.26;100.00
50356;BME280;36264;51.296;-0.602;2023-08-06T05:53:05;101389.84;;;14.19;100.00
50356;BME280;36264;51.296;-0.602;2023-08-06T05:55:30;101397.28;;;14.30;100.00
50356;BME280;36264;51.296;-0.602;2023-08-06T05:57:57;101391.06;;;14.34;100.00
50356;BME280;36264;51.296;-0.602;2023-08-06T06:00:22;101393.56;;;14.37;100.00
50356;BME280;36264;51.296;-0.602;2023-08-06T06:02:48;101397.03;;;14.38;100.00
50356;BME280;36264;51.296;-0.602;2023-08-06T06:05:13;101409.75;;;14.47;100.00
50356;BME280;36264;51.296;-0.602;2023-08-06T06:07:39;101411.38;;;14.49;100.00
50356;BME280;36264;51.296;-0.602;2023-08-06T06:10:04;101408.59;;;14.54;100.00
50356;BME280;36264;51.296;-0.602;2023-08-06T06:12:30;101416.56;;;14.51;100.00
50356;BME280;36264;51.296;-0.602;2023-08-06T06:14:55;101410.25;;;14.57;100.00
50356;BME280;36264;51.296;-0.602;2023-08-06T06:17:21;101414.88;;;14.50;100.00
50356;BME280;36264;51.296;-0.602;2023-08-06T06:19:47;101423.72;;;14.46;100.00
50356;BME280;36264;51.296;-0.602;2023-08-06T06:22:12;101426.06;;;14.54;100.00
50356;BME280;36264;51.296;-0.602;2023-08-06T06:24:37;101425.53;;;14.69;100.00
50356;BME280;36264;51.296;-0.602;2023-08-06T06:27:03;101422.69;;;14.75;100.00
50356;BME280;36264;51.296;-0.602;2023-08-06T06:29:29;101422.63;;;14.77;100.00
50356;BME280;36264;51.296;-0.602;2023-08-06T06:31:54;101423.25;;;14.83;100.00
50356;BME280;36264;51.296;-0.602;2023-08-06T06:34:19;101432.81;;;14.84;100.00
50356;BME280;36264;51.296;-0.602;2023-08-06T06:36:44;101425.03;;;14.83;100.00
50356;BME280;36264;51.296;-0.602;2023-08-06T06:39:10;101421.59;;;14.81;100.00
50356;BME280;36264;51.296;-0.602;2023-08-06T06:41:35;101430.88;;;14.90;100.00
50356;BME280;36264;51.296;-0.602;2023-08-06T06:44:00;101431.97;;;15.06;100.00
50356;BME280;36264;51.296;-0.602;2023-08-06T06:46:26;101436.41;;;15.04;100.00
50356;BME280;36264;51.296;-0.602;2023-08-06T06:48:51;101428.22;;;15.13;100.00
50356;BME280;36264;51.296;-0.602;2023-08-06T06:51:17;101437.38;;;15.24;100.00
50356;BME280;36264;51.296;-0.602;2023-08-06T06:53:42;101437.69;;;15.38;100.00
50356;BME280;36264;51.296;-0.602;2023-08-06T06:56:07;101438.50;;;15.40;100.00
50356;BME280;36264;51.296;-0.602;2023-08-06T06:58:33;101444.50;;;15.42;100.00
50356;BME280;36264;51.296;-0.602;2023-08-06T07:00:58;101439.22;;;15.44;100.00
50356;BME280;36264;51.296;-0.602;2023-08-06T07:03:24;101441.41;;;15.54;100.00
50356;BME280;36264;51.296;-0.602;2023-08-06T07:05:49;101447.84;;;15.68;100.00
50356;BME280;36264;51.296;-0.602;2023-08-06T07:08:15;101447.59;;;15.74;100.00
50356;BME280;36264;51.296;-0.602;2023-08-06T07:10:41;101458.44;;;15.87;100.00
50356;BME280;36264;51.296;-0.602;2023-08-06T07:13:07;101458.63;;;15.82;100.00
50356;BME280;36264;51.296;-0.602;2023-08-06T07:15:32;101450.03;;;15.79;100.00
50356;BME280;36264;51.296;-0.602;2023-08-06T07:17:58;101454.84;;;15.89;100.00
50356;BME280;36264;51.296;-0.602;2023-08-06T07:20:23;101457.28;;;15.94;100.00
50356;BME280;36264;51.296;-0.602;2023-08-06T07:22:49;101456.84;;;16.03;100.00
50356;BME280;36264;51.296;-0.602;2023-08-06T07:25:15;101456.53;;;16.11;100.00
50356;BME280;36264;51.296;-0.602;2023-08-06T07:27:41;101465.13;;;16.15;100.00
50356;BME280;36264;51.296;-0.602;2023-08-06T07:30:07;101475.19;;;16.24;100.00
50356;BME280;36264;51.296;-0.602;2023-08-06T07:32:32;101474.69;;;16.16;100.00
50356;BME280;36264;51.296;-0.602;2023-08-06T07:34:58;101466.22;;;16.09;100.00
50356;BME280;36264;51.296;-0.602;2023-08-06T07:37:28;101472.72;;;16.21;100.00
50356;BME280;36264;51.296;-0.602;2023-08-06T07:39:54;101471.09;;;16.18;100.00
50356;BME280;36264;51.296;-0.602;2023-08-06T07:42:20;101472.25;;;16.32;100.00
50356;BME280;36264;51.296;-0.602;2023-08-06T07:44:51;101472.47;;;16.66;100.00
50356;BME280;36264;51.296;-0.602;2023-08-06T07:47:16;101474.00;;;16.52;100.00
50356;BME280;36264;51.296;-0.602;2023-08-06T07:49:41;101474.41;;;16.42;100.00
50356;BME280;36264;51.296;-0.602;2023-08-06T07:52:07;101468.69;;;16.53;100.00
50356;BME280;36264;51.296;-0.602;2023-08-06T07:54:32;101474.97;;;16.49;100.00
50356;BME280;36264;51.296;-0.602;2023-08-06T07:56:58;101476.63;;;16.52;100.00
50356;BME280;36264;51.296;-0.602;2023-08-06T07:59:23;101471.78;;;16.42;100.00
50356;BME280;36264;51.296;-0.602;2023-08-06T08:01:49;101474.59;;;16.38;100.00
50356;BME280;36264;51.296;-0.602;2023-08-06T08:04:14;101492.28;;;16.53;100.00
50356;BME280;36264;51.296;-0.602;2023-08-06T08:06:39;101478.53;;;16.48;100.00
50356;BME280;36264;51.296;-0.602;2023-08-06T08:09:05;101478.34;;;16.53;100.00
50356;BME280;36264;51.296;-0.602;2023-08-06T08:11:30;101484.63;;;16.48;100.00
50356;BME280;36264;51.296;-0.602;2023-08-06T08:13:55;101482.84;;;16.49;100.00
50356;BME280;36264;51.296;-0.602;2023-08-06T08:16:21;101484.88;;;16.63;100.00
50356;BME280;36264;51.296;-0.602;2023-08-06T08:18:46;101485.38;;;16.71;100.00
50356;BME280;36264;51.296;-0.602;2023-08-06T08:21:11;101486.06;;;16.75;100.00
50356;BME280;36264;51.296;-0.602;2023-08-06T08:23:37;101492.06;;;16.78;100.00
50356;BME280;36264;51.296;-0.602;2023-08-06T08:26:04;101485.09;;;16.77;100.00
50356;BME280;36264;51.296;-0.602;2023-08-06T08:28:30;101495.31;;;16.83;100.00
50356;BME280;36264;51.296;-0.602;2023-08-06T08:30:55;101494.47;;;16.83;100.00
50356;BME280;36264;51.296;-0.602;2023-08-06T08:33:21;101491.75;;;17.05;100.00
50356;BME280;36264;51.296;-0.602;2023-08-06T08:35:47;101492.69;;;16.83;100.00
50356;BME280;36264;51.296;-0.602;2023-08-06T08:38:12;101488.34;;;16.82;100.00
50356;BME280;36264;51.296;-0.602;2023-08-06T08:40:46;101492.72;;;17.02;100.00
50356;BME280;36264;51.296;-0.602;2023-08-06T08:43:15;101497.56;;;16.93;100.00
50356;BME280;36264;51.296;-0.602;2023-08-06T08:45:42;101502.66;;;16.96;100.00
50356;BME280;36264;51.296;-0.602;2023-08-06T08:48:10;101503.63;;;16.93;100.00
50356;BME280;36264;51.296;-0.602;2023-08-06T08:50:37;101503.50;;;16.96;100.00
50356;BME280;36264;51.296;-0.602;2023-08-06T08:53:02;101499.19;;;16.75;100.00
50356;BME280;36264;51.296;-0.602;2023-08-06T08:55:28;101495.59;;;16.77;100.00
50356;BME280;36264;51.296;-0.602;2023-08-06T08:57:53;101495.59;;;16.77;100.00
50356;BME280;36264;51.296;-0.602;2023-08-06T09:00:19;101499.66;;;16.84;100.00
50356;BME280;36264;51.296;-0.602;2023-08-06T09:02:45;101511.78;;;17.06;100.00
50356;BME280;36264;51.296;-0.602;2023-08-06T09:05:12;101508.47;;;17.02;100.00
50356;BME280;36264;51.296;-0.602;2023-08-06T09:07:48;101515.44;;;17.23;100.00
50356;BME280;36264;51.296;-0.602;2023-08-06T09:10:16;101509.38;;;17.20;100.00
50356;BME280;36264;51.296;-0.602;2023-08-06T09:12:43;101507.50;;;17.24;100.00
50356;BME280;36264;51.296;-0.602;2023-08-06T09:15:10;101504.41;;;17.14;100.00
50356;BME280;36264;51.296;-0.602;2023-08-06T09:17:36;101504.25;;;17.36;100.00
50356;BME280;36264;51.296;-0.602;2023-08-06T09:20:10;101509.13;;;17.63;100.00
50356;BME280;36264;51.296;-0.602;2023-08-06T09:22:35;101507.72;;;17.56;100.00
50356;BME280;36264;51.296;-0.602;2023-08-06T09:25:00;101510.56;;;17.51;100.00
50356;BME280;36264;51.296;-0.602;2023-08-06T09:27:26;101521.56;;;17.60;100.00
50356;BME280;36264;51.296;-0.602;2023-08-06T09:29:51;101512.75;;;17.61;100.00
50356;BME280;36264;51.296;-0.602;2023-08-06T09:32:16;101512.28;;;17.70;100.00
50356;BME280;36264;51.296;-0.602;2023-08-06T09:34:43;101518.66;;;17.83;100.00
50356;BME280;36264;51.296;-0.602;2023-08-06T09:37:09;101521.59;;;17.77;100.00
50356;BME280;36264;51.296;-0.602;2023-08-06T09:39:35;101520.81;;;17.75;100.00
50356;BME280;36264;51.296;-0.602;2023-08-06T09:42:01;101513.13;;;17.89;100.00
50356;BME280;36264;51.296;-0.602;2023-08-06T09:44:28;101509.22;;;17.79;99.81
50356;BME280;36264;51.296;-0.602;2023-08-06T09:46:54;101519.34;;;17.87;100.00
50356;BME280;36264;51.296;-0.602;2023-08-06T09:49:42;101510.59;;;18.05;100.00
50356;BME280;36264;51.296;-0.602;2023-08-06T09:52:11;101511.72;;;18.17;100.00
50356;BME280;36264;51.296;-0.602;2023-08-06T09:54:37;101518.47;;;18.05;99.74
50356;BME280;36264;51.296;-0.602;2023-08-06T09:57:03;101515.38;;;18.15;100.00
50356;BME280;36264;51.296;-0.602;2023-08-06T09:59:29;101518.25;;;18.27;100.00
50356;BME280;36264;51.296;-0.602;2023-08-06T10:01:56;101524.31;;;18.45;100.00
50356;BME280;36264;51.296;-0.602;2023-08-06T10:04:21;101534.59;;;18.50;100.00
50356;BME280;36264;51.296;-0.602;2023-08-06T10:06:48;101519.53;;;18.36;97.57
50356;BME280;36264;51.296;-0.602;2023-08-06T10:09:14;101528.06;;;18.24;95.39
50356;BME280;36264;51.296;-0.602;2023-08-06T10:11:40;101523.19;;;18.34;97.90
50356;BME280;36264;51.296;-0.602;2023-08-06T10:14:15;101527.06;;;18.60;99.13
50356;BME280;36264;51.296;-0.602;2023-08-06T10:16:41;101530.50;;;18.44;98.96
50356;BME280;36264;51.296;-0.602;2023-08-06T10:19:09;101527.88;;;18.44;98.04
50356;BME280;36264;51.296;-0.602;2023-08-06T10:21:35;101529.44;;;18.31;97.84
50356;BME280;36264;51.296;-0.602;2023-08-06T10:24:00;101536.63;;;18.45;98.93
50356;BME280;36264;51.296;-0.602;2023-08-06T10:26:29;101532.81;;;18.51;98.19
50356;BME280;36264;51.296;-0.602;2023-08-06T10:28:55;101535.84;;;18.60;100.00
50356;BME280;36264;51.296;-0.602;2023-08-06T10:31:53;101539.19;;;18.97;96.78
50356;BME280;36264;51.296;-0.602;2023-08-06T10:34:19;101532.41;;;18.58;93.52
50356;BME280;36264;51.296;-0.602;2023-08-06T10:36:45;101533.84;;;18.48;94.56
50356;BME280;36264;51.296;-0.602;2023-08-06T10:39:14;101536.41;;;18.83;96.18
50356;BME280;36264;51.296;-0.602;2023-08-06T10:41:42;101532.63;;;18.71;93.16
50356;BME280;36264;51.296;-0.602;2023-08-06T10:44:09;101529.47;;;18.64;94.54
50356;BME280;36264;51.296;-0.602;2023-08-06T10:46:36;101532.03;;;18.66;94.99
50356;BME280;36264;51.296;-0.602;2023-08-06T10:49:02;101531.84;;;18.87;96.99
50356;BME280;36264;51.296;-0.602;2023-08-06T10:51:28;101530.63;;;18.76;95.50
50356;BME280;36264;51.296;-0.602;2023-08-06T10:53:54;101536.78;;;18.93;96.57
50356;BME280;36264;51.296;-0.602;2023-08-06T10:56:24;101536.22;;;19.19;94.13
50356;BME280;36264;51.296;-0.602;2023-08-06T10:58:54;101533.94;;;19.13;94.22
50356;BME280;36264;51.296;-0.602;2023-08-06T11:01:22;101525.59;;;19.05;92.01
50356;BME280;36264;51.296;-0.602;2023-08-06T11:03:49;101528.84;;;19.26;93.52
50356;BME280;36264;51.296;-0.602;2023-08-06T11:06:22;101515.91;;;19.37;90.57
50356;BME280;36264;51.296;-0.602;2023-08-06T11:08:52;101529.16;;;19.52;92.65
50356;BME280;36264;51.296;-0.602;2023-08-06T11:11:22;101525.00;;;19.48;91.68
50356;BME280;36264;51.296;-0.602;2023-08-06T11:13:49;101519.50;;;19.52;91.98
50356;BME280;36264;51.296;-0.602;2023-08-06T11:16:18;101519.63;;;19.65;90.54
50356;BME280;36264;51.296;-0.602;2023-08-06T11:18:45;101525.34;;;19.58;90.38
50356;BME280;36264;51.296;-0.602;2023-08-06T11:21:11;101517.09;;;19.64;90.46
50356;BME280;36264;51.296;-0.602;2023-08-06T11:23:40;101515.63;;;19.74;88.96
50356;BME280;36264;51.296;-0.602;2023-08-06T11:26:05;101513.66;;;19.78;90.16
50356;BME280;36264;51.296;-0.602;2023-08-06T11:28:31;101515.22;;;19.82;89.45
50356;BME280;36264;51.296;-0.602;2023-08-06T11:30:58;101515.47;;;20.07;92.11
50356;BME280;36264;51.296;-0.602;2023-08-06T11:33:27;101519.69;;;19.96;86.43
50356;BME280;36264;51.296;-0.602;2023-08-06T11:35:54;101512.44;;;19.99;87.10
50356;BME280;36264;51.296;-0.602;2023-08-06T11:38:20;101511.47;;;19.86;86.46
50356;BME280;36264;51.296;-0.602;2023-08-06T11:40:45;101513.41;;;19.82;85.12
50356;BME280;36264;51.296;-0.602;2023-08-06T11:43:14;101508.00;;;20.00;84.71
50356;BME280;36264;51.296;-0.602;2023-08-06T11:45:40;101511.41;;;20.02;86.36
50356;BME280;36264;51.296;-0.602;2023-08-06T11:48:06;101510.22;;;20.22;87.38
50356;BME280;36264;51.296;-0.602;2023-08-06T11:50:36;101501.22;;;20.40;83.91
50356;BME280;36264;51.296;-0.602;2023-08-06T11:53:02;101503.63;;;20.15;83.39
50356;BME280;36264;51.296;-0.602;2023-08-06T11:55:28;101517.56;;;20.17;83.81
50356;BME280;36264;51.296;-0.602;2023-08-06T11:57:54;101503.53;;;20.16;82.04
50356;BME280;36264;51.296;-0.602;2023-08-06T12:00:23;101510.41;;;20.19;80.38
50356;BME280;36264;51.296;-0.602;2023-08-06T12:02:49;101505.81;;;20.22;82.11
50356;BME280;36264;51.296;-0.602;2023-08-06T12:05:18;101503.81;;;20.12;81.37
50356;BME280;36264;51.296;-0.602;2023-08-06T12:07:53;101515.69;;;20.33;82.14
50356;BME280;36264;51.296;-0.602;2023-08-06T12:10:20;101506.19;;;20.31;82.43
50356;BME280;36264;51.296;-0.602;2023-08-06T12:12:46;101506.25;;;20.15;75.37
50356;BME280;36264;51.296;-0.602;2023-08-06T12:15:11;101501.66;;;20.18;78.61
50356;BME280;36264;51.296;-0.602;2023-08-06T12:17:37;101504.19;;;20.20;79.20
50356;BME280;36264;51.296;-0.602;2023-08-06T12:20:04;101499.41;;;20.41;80.70
50356;BME280;36264;51.296;-0.602;2023-08-06T12:22:31;101502.50;;;20.33;80.80
50356;BME280;36264;51.296;-0.602;2023-08-06T12:25:18;101504.59;;;20.42;79.96
50356;BME280;36264;51.296;-0.602;2023-08-06T12:27:44;101501.22;;;20.40;80.02
50356;BME280;36264;51.296;-0.602;2023-08-06T12:30:11;101499.69;;;20.36;80.69
50356;BME280;36264;51.296;-0.602;2023-08-06T12:32:38;101511.75;;;20.26;81.48
50356;BME280;36264;51.296;-0.602;2023-08-06T12:35:03;101510.31;;;20.20;83.20